Time;durP1;ratioP1;P1;durP2;ratioP2;P2;SDS_P1;SDS_P2;PMS_P1;PMS_P2;Temp;Humidity;BMP_temperature;BMP_pressure;BME280_temperature;BME280_humidity;BME280_pressure;Samples;Min_cycle;Max_cycle;Signal;HPM_P1;HPM_P2
2022/08/07 00:00:57;;;;;;;;;3.25;3.00;;;;;21.39;33.49;101805.31;5103426;27;53519;-90
2022/08/07 00:03:24;;;;;;;;;3.50;3.00;;;;;21.54;34.18;101832.19;5093889;27;45985;-91
2022/08/07 00:05:51;;;;;;;;;3.00;2.50;;;;;21.58;34.08;101838.44;5092812;27;45225;-90
2022/08/07 00:08:17;;;;;;;;;3.00;3.00;;;;;21.64;33.81;101854.53;5093760;28;45184;-92
2022/08/07 00:10:43;;;;;;;;;3.00;3.00;;;;;21.57;33.97;101839.31;5093988;27;45160;-92
2022/08/07 00:13:09;;;;;;;;;4.00;3.25;;;;;21.13;33.94;101773.91;5096792;27;45410;-89
2022/08/07 00:15:34;;;;;;;;;3.50;3.50;;;;;21.37;33.97;101816.00;5113653;27;45099;-88
2022/08/07 00:17:59;;;;;;;;;2.00;2.00;;;;;21.35;34.15;101804.41;5112898;27;45014;-85
2022/08/07 00:20:25;;;;;;;;;3.00;3.00;;;;;21.52;34.33;101839.28;5113829;27;45019;-84
2022/08/07 00:22:51;;;;;;;;;2.25;2.00;;;;;21.46;34.15;101827.66;5113548;27;45647;-89
2022/08/07 00:25:16;;;;;;;;;3.00;3.00;;;;;21.17;34.28;101785.50;5112421;27;53854;-89
2022/08/07 00:27:42;;;;;;;;;3.00;2.00;;;;;21.32;34.01;101807.03;5093207;28;45115;-91
2022/08/07 00:30:08;;;;;;;;;5.25;4.25;;;;;21.36;34.09;101818.66;5094545;27;45155;-84
2022/08/07 00:32:33;;;;;;;;;3.25;3.25;;;;;21.38;34.02;101820.47;5099141;27;47881;-91
2022/08/07 00:34:59;;;;;;;;;3.00;3.00;;;;;21.02;34.02;101770.22;5093597;27;44906;-87
2022/08/07 00:37:25;;;;;;;;;3.50;3.50;;;;;21.24;34.22;101819.44;5094583;27;45062;-90
2022/08/07 00:39:52;;;;;;;;;3.00;3.00;;;;;21.31;34.26;101818.63;5093755;28;45085;-85
2022/08/07 00:42:18;;;;;;;;;4.00;4.00;;;;;21.18;34.26;101802.44;5093148;28;47520;-92
2022/08/07 00:44:44;;;;;;;;;3.75;3.75;;;;;21.29;33.97;101816.81;5094400;28;45151;-89
2022/08/07 00:47:09;;;;;;;;;4.00;4.00;;;;;21.13;34.43;101786.34;5092968;28;45286;-92
2022/08/07 00:49:34;;;;;;;;;3.00;3.00;;;;;21.08;34.07;101788.09;5110104;27;52434;-87
2022/08/07 00:51:59;;;;;;;;;2.67;2.67;;;;;21.16;34.10;101799.75;5094782;27;51420;-87
2022/08/07 00:54:25;;;;;;;;;4.00;4.00;;;;;21.24;34.29;101821.22;5109828;27;55676;-87
2022/08/07 00:56:50;;;;;;;;;2.00;2.00;;;;;21.04;34.71;101795.22;5085145;28;48870;-90
2022/08/07 00:59:17;;;;;;;;;2.00;2.00;;;;;20.97;34.56;101784.44;5074286;28;44913;-87
2022/08/07 01:01:43;;;;;;;;;4.00;3.25;;;;;21.02;34.76;101790.72;5072746;28;47249;-88
2022/08/07 01:04:09;;;;;;;;;4.00;4.00;;;;;20.71;34.48;101745.03;5094033;27;45083;-86
2022/08/07 01:06:34;;;;;;;;;3.00;3.00;;;;;20.97;34.41;101796.03;5092346;28;45074;-92
2022/08/07 01:09:00;;;;;;;;;3.00;3.00;;;;;21.07;35.14;101810.38;5111006;27;45066;-90
2022/08/07 01:11:27;;;;;;;;;4.75;3.00;;;;;20.99;34.93;101801.41;5097161;27;46489;-89
2022/08/07 01:13:53;;;;;;;;;3.50;3.50;;;;;20.85;34.97;101782.56;5097656;27;45370;-89
2022/08/07 01:16:18;;;;;;;;;4.00;3.50;;;;;20.70;35.16;101758.41;5077657;27;45332;-88
2022/08/07 01:18:44;;;;;;;;;3.00;3.00;;;;;20.78;35.05;101778.03;5096344;27;45298;-91
2022/08/07 01:21:18;;;;;;;;;3.50;3.50;;;;;20.78;35.20;101784.28;5105743;27;45542;-88
2022/08/07 01:23:45;;;;;;;;;3.25;3.25;;;;;20.89;35.41;101813.78;5106193;27;45158;-91
2022/08/07 01:26:15;;;;;;;;;4.00;4.00;;;;;20.77;35.06;101792.28;5073812;28;45177;-92
2022/08/07 01:28:42;;;;;;;;;5.25;4.50;;;;;20.82;35.21;101802.13;5086977;27;45332;-91
2022/08/07 01:31:08;;;;;;;;;4.00;4.00;;;;;20.59;35.75;101759.19;5094724;27;45377;-83
2022/08/07 01:33:36;;;;;;;;;4.25;4.25;;;;;20.76;35.49;101793.19;5102591;27;45271;-91
2022/08/07 01:36:02;;;;;;;;;3.00;3.00;;;;;20.56;35.49;101772.50;5105038;27;45153;-83
2022/08/07 01:38:29;;;;;;;;;6.00;6.00;;;;;20.53;35.96;101767.13;5113599;27;45121;-84
2022/08/07 01:41:01;;;;;;;;;2.25;2.00;;;;;20.50;35.47;101774.22;5112166;27;46015;-90
2022/08/07 01:43:27;;;;;;;;;4.00;4.00;;;;;20.45;35.85;101770.59;5092367;28;45597;-89
2022/08/07 01:45:54;;;;;;;;;5.00;4.00;;;;;20.64;35.90;101795.72;5080935;27;45619;-86
2022/08/07 01:48:19;;;;;;;;;3.25;3.25;;;;;20.38;36.35;101752.69;5089398;28;45102;-85
2022/08/07 01:50:52;;;;;;;;;3.25;3.25;;;;;20.43;36.47;101767.88;5092390;28;45786;-89
2022/08/07 01:53:22;;;;;;;;;4.00;4.00;;;;;20.48;35.90;101778.63;5092184;28;45074;-86
2022/08/07 01:56:01;;;;;;;;;4.00;4.00;;;;;20.35;36.16;101766.91;5094604;27;45312;-89
2022/08/07 01:58:31;;;;;;;;;4.00;4.00;;;;;20.54;36.27;101794.72;5091552;28;45011;-88
2022/08/07 02:01:02;;;;;;;;;5.00;5.00;;;;;20.51;36.51;101802.72;5089656;27;45291;-84
2022/08/07 02:03:32;;;;;;;;;8.00;8.00;;;;;20.41;36.45;101787.44;5090010;28;45504;-86
2022/08/07 02:06:07;;;;;;;;;5.00;4.75;;;;;20.48;36.62;101805.34;5090104;28;45310;-87
2022/08/07 02:08:36;;;;;;;;;4.00;3.25;;;;;20.35;36.86;101777.59;5089333;27;45339;-85
2022/08/07 02:11:04;;;;;;;;;4.00;4.00;;;;;20.46;36.51;101797.28;5088879;27;45610;-87
2022/08/07 02:13:31;;;;;;;;;5.00;5.00;;;;;20.40;36.70;101797.25;5089259;28;45417;-88
2022/08/07 02:15:59;;;;;;;;;3.50;3.25;;;;;20.34;37.10;101787.38;5088551;28;45040;-84
2022/08/07 02:18:27;;;;;;;;;3.00;3.00;;;;;20.20;36.89;101769.41;5090328;28;45061;-86
2022/08/07 02:20:57;;;;;;;;;4.75;4.75;;;;;20.34;37.18;101803.41;5089418;28;45860;-90
2022/08/07 02:23:24;;;;;;;;;4.00;3.50;;;;;20.28;37.19;101786.41;5105459;27;45440;-89
2022/08/07 02:25:52;;;;;;;;;4.00;4.00;;;;;20.34;37.28;101807.81;5090297;28;45182;-90
2022/08/07 02:28:19;;;;;;;;;4.00;4.00;;;;;20.33;37.56;101800.69;5090194;28;44881;-85
2022/08/07 02:30:46;;;;;;;;;3.00;3.00;;;;;20.07;37.20;101760.34;5089708;28;45458;-90
2022/08/07 02:33:14;;;;;;;;;3.00;3.00;;;;;20.08;37.58;101771.03;5088763;28;45547;-88
2022/08/07 02:35:41;;;;;;;;;4.25;4.00;;;;;20.06;37.75;101775.47;5088948;27;45014;-91
2022/08/07 02:38:09;;;;;;;;;4.25;3.75;;;;;20.17;37.53;101783.63;5089254;28;45135;-92
2022/08/07 02:40:37;;;;;;;;;3.00;2.25;;;;;20.01;37.10;101763.84;5089389;28;46091;-88
2022/08/07 02:43:05;;;;;;;;;4.50;4.50;;;;;20.09;38.10;101790.63;5090539;28;45408;-89
2022/08/07 02:45:32;;;;;;;;;3.75;3.75;;;;;19.83;37.70;101739.59;5089813;27;45044;-92
2022/08/07 02:47:57;;;;;;;;;4.00;4.00;;;;;20.07;37.56;101787.06;5090613;28;45314;-90
2022/08/07 02:50:23;;;;;;;;;4.75;4.75;;;;;20.00;37.34;101775.41;5087245;28;45347;-91
2022/08/07 02:52:57;;;;;;;;;3.00;3.00;;;;;20.04;38.09;101779.88;5087104;28;45391;-91
2022/08/07 02:55:25;;;;;;;;;3.25;3.25;;;;;19.94;37.85;101769.97;5087709;28;44952;-88
2022/08/07 02:57:53;;;;;;;;;3.50;3.50;;;;;20.04;38.14;101792.34;5104144;27;45233;-90
2022/08/07 03:00:19;;;;;;;;;5.00;4.00;;;;;20.02;38.11;101784.31;5088347;27;47013;-87
2022/08/07 03:02:47;;;;;;;;;2.00;2.00;;;;;19.73;37.91;101741.25;5107839;27;45705;-90
2022/08/07 03:05:14;;;;;;;;;3.50;3.50;;;;;19.89;38.07;101773.47;5093755;28;45560;-91
2022/08/07 03:07:41;;;;;;;;;3.50;3.50;;;;;19.92;37.84;101782.41;5092848;27;44988;-86
2022/08/07 03:10:08;;;;;;;;;4.00;3.00;;;;;19.93;38.21;101784.19;5093578;27;45358;-87
2022/08/07 03:12:35;;;;;;;;;4.50;3.50;;;;;19.90;38.37;101783.25;5093531;28;45488;-90
2022/08/07 03:15:02;;;;;;;;;3.00;3.00;;;;;19.87;38.49;101791.25;5091589;28;45003;-90
2022/08/07 03:17:29;;;;;;;;;4.25;4.00;;;;;19.71;38.88;101766.13;5092090;28;45638;-85
2022/08/07 03:19:55;;;;;;;;;4.25;4.25;;;;;19.78;39.26;101784.91;5091534;28;45359;-88
2022/08/07 03:22:22;;;;;;;;;3.25;3.25;;;;;19.80;38.60;101779.56;5091612;28;45433;-90
2022/08/07 03:24:48;;;;;;;;;3.50;3.00;;;;;19.78;39.35;101786.69;5091847;27;45041;-90
2022/08/07 03:27:14;;;;;;;;;4.00;3.75;;;;;19.58;39.07;101757.03;5090642;28;45142;-85
2022/08/07 03:29:46;;;;;;;;;4.00;4.00;;;;;19.50;39.01;101751.56;5091943;28;45418;-84
2022/08/07 03:32:14;;;;;;;;;3.00;3.00;;;;;19.34;39.08;101731.81;5088258;28;45425;-89
2022/08/07 03:34:42;;;;;;;;;2.00;2.00;;;;;19.34;39.42;101728.25;5091845;27;45076;-84
2022/08/07 03:37:09;;;;;;;;;3.50;3.00;;;;;19.56;39.80;101778.34;5087602;28;46352;-85
2022/08/07 03:39:35;;;;;;;;;3.00;3.00;;;;;19.40;39.63;101749.66;5091028;28;46189;-87
2022/08/07 03:42:03;;;;;;;;;3.00;3.00;;;;;19.55;39.86;101773.88;5087774;27;45291;-88
2022/08/07 03:44:29;;;;;;;;;3.50;3.50;;;;;19.28;39.50;101728.16;5092347;28;45004;-88
2022/08/07 03:46:55;;;;;;;;;3.50;3.50;;;;;19.49;39.67;101778.22;5093480;28;45076;-87
2022/08/07 03:49:21;;;;;;;;;3.75;3.50;;;;;19.45;39.53;101763.06;5093031;27;45445;-90
2022/08/07 03:51:47;;;;;;;;;3.50;3.50;;;;;19.22;39.97;101733.41;5093272;28;45135;-84
2022/08/07 03:54:13;;;;;;;;;3.50;3.50;;;;;19.38;39.78;101775.41;5093012;28;45126;-88
2022/08/07 03:56:39;;;;;;;;;3.50;3.00;;;;;19.29;39.77;101761.94;5093809;27;45071;-90
2022/08/07 03:59:06;;;;;;;;;3.50;3.25;;;;;19.34;40.28;101774.44;5091344;28;47383;-88
2022/08/07 04:01:34;;;;;;;;;3.75;3.75;;;;;19.38;39.99;101787.84;5093142;28;45042;-84
2022/08/07 04:04:00;;;;;;;;;2.50;2.50;;;;;19.24;40.39;101769.84;5090387;27;45020;-89
2022/08/07 04:06:26;;;;;;;;;4.00;4.00;;;;;19.24;40.00;101766.31;5091982;28;45145;-84
2022/08/07 04:08:52;;;;;;;;;4.00;3.75;;;;;18.84;40.50;101716.81;5091280;28;45525;-90
2022/08/07 04:11:17;;;;;;;;;5.00;5.00;;;;;19.17;40.65;101756.44;5074040;28;46176;-85
2022/08/07 04:13:45;;;;;;;;;3.00;3.00;;;;;18.94;40.24;101721.41;5075712;28;45446;-91
2022/08/07 04:16:11;;;;;;;;;3.50;3.50;;;;;19.10;40.79;101751.88;5075936;27;45693;-83
2022/08/07 04:18:37;;;;;;;;;3.50;3.50;;;;;19.25;40.86;101781.41;5075866;28;46558;-82
2022/08/07 04:21:02;;;;;;;;;3.00;3.00;;;;;19.15;41.10;101764.38;5075283;28;45811;-85
2022/08/07 04:23:29;;;;;;;;;4.00;4.00;;;;;19.27;40.51;101787.69;5075844;27;46432;-83
2022/08/07 04:25:55;;;;;;;;;4.00;4.00;;;;;19.07;41.23;101758.06;5075763;27;45417;-83
2022/08/07 04:28:20;;;;;;;;;4.00;3.25;;;;;19.18;40.64;101780.44;5074783;27;46796;-91
2022/08/07 04:30:48;;;;;;;;;4.00;4.00;;;;;18.95;41.35;101748.06;5076012;27;45504;-91
2022/08/07 04:33:13;;;;;;;;;4.00;4.00;;;;;18.99;41.06;101749.94;5077131;27;45370;-89
2022/08/07 04:35:42;;;;;;;;;3.00;3.00;;;;;18.93;41.37;101752.50;5071182;28;45400;-89
2022/08/07 04:38:09;;;;;;;;;4.00;4.00;;;;;18.77;41.13;101730.03;5076481;28;46359;-92
2022/08/07 04:40:39;;;;;;;;;4.75;4.75;;;;;19.04;41.28;101785.53;5076629;27;45440;-86
2022/08/07 04:43:05;;;;;;;;;5.00;4.25;;;;;18.94;41.50;101756.06;5076330;27;45285;-88
2022/08/07 04:45:51;;;;;;;;;4.75;4.00;;;;;19.16;41.16;101797.25;5073336;27;45486;-87
2022/08/07 04:48:40;;;;;;;;;4.00;4.00;;;;;19.05;41.12;101778.44;5073452;27;45670;-89
2022/08/07 04:51:31;;;;;;;;;4.00;3.25;;;;;18.91;41.54;101754.22;5075358;28;45534;-92
2022/08/07 04:54:06;;;;;;;;;3.00;2.75;;;;;19.10;41.70;101792.72;5055753;27;46119;-89
2022/08/07 04:56:43;;;;;;;;;5.50;5.50;;;;;18.91;41.52;101763.97;5076344;27;45274;-90
2022/08/07 04:59:24;;;;;;;;;4.00;3.50;;;;;19.09;41.72;101804.25;5076195;28;45415;-89
2022/08/07 05:02:02;;;;;;;;;4.00;3.50;;;;;18.81;41.62;101762.94;5072537;28;45299;-89
2022/08/07 05:04:49;;;;;;;;;4.25;4.25;;;;;19.08;41.86;101800.72;5075375;27;45582;-89
2022/08/07 05:07:19;;;;;;;;;4.50;3.50;;;;;18.84;41.74;101771.00;5075477;27;45535;-87
2022/08/07 05:09:45;;;;;;;;;3.25;3.25;;;;;19.12;42.24;101812.31;5087676;27;47170;-88
2022/08/07 05:12:16;;;;;;;;;4.00;4.00;;;;;19.04;41.96;101792.63;5071395;28;45342;-85
2022/08/07 05:14:44;;;;;;;;;4.00;3.50;;;;;19.02;42.31;101794.38;5070531;28;45687;-88
2022/08/07 05:17:13;;;;;;;;;4.50;4.00;;;;;19.13;42.83;101814.09;5089858;27;45580;-85
2022/08/07 05:19:46;;;;;;;;;3.00;3.00;;;;;19.14;42.34;101820.34;5073422;28;47147;-90
2022/08/07 05:22:14;;;;;;;;;3.00;3.00;;;;;18.83;41.83;101768.31;5074942;27;45825;-90
2022/08/07 05:24:40;;;;;;;;;3.00;3.00;;;;;19.08;42.26;101815.81;5071222;28;45543;-87
2022/08/07 05:27:09;;;;;;;;;3.50;3.00;;;;;19.06;42.22;101809.53;5074566;28;45561;-85
2022/08/07 05:29:38;;;;;;;;;3.00;3.00;;;;;19.12;42.41;101817.66;5086963;27;47106;-87
2022/08/07 05:32:06;;;;;;;;;4.75;4.75;;;;;18.92;42.22;101779.13;5074756;27;45868;-90
2022/08/07 05:34:39;;;;;;;;;3.00;3.00;;;;;19.00;42.10;101789.00;5074285;28;45593;-83
2022/08/07 05:37:06;;;;;;;;;4.00;4.00;;;;;19.15;42.32;101811.47;5073660;28;45665;-88
2022/08/07 05:39:34;;;;;;;;;3.00;3.00;;;;;19.15;42.44;101807.03;5074748;27;45437;-84
2022/08/07 05:42:00;;;;;;;;;3.00;3.00;;;;;19.23;42.01;101821.38;5070901;28;45885;-87
2022/08/07 05:44:25;;;;;;;;;4.00;4.00;;;;;19.28;42.34;101835.69;5075327;27;45319;-91
2022/08/07 05:46:51;;;;;;;;;4.00;4.00;;;;;19.15;42.25;101800.81;5073950;27;45478;-89
2022/08/07 05:49:19;;;;;;;;;3.00;3.00;;;;;19.12;42.12;101793.66;5090315;28;45683;-86
2022/08/07 05:51:45;;;;;;;;;2.00;2.00;;;;;19.35;42.53;101826.00;5090799;28;45706;-85
2022/08/07 05:54:11;;;;;;;;;3.50;3.50;;;;;19.29;42.31;101821.47;5091042;28;45098;-90
2022/08/07 05:56:40;;;;;;;;;3.50;3.50;;;;;18.99;42.51;101760.59;5090886;28;45141;-91
2022/08/07 05:59:11;;;;;;;;;4.00;4.00;;;;;19.36;41.88;101832.22;5089491;28;45462;-87
2022/08/07 06:01:38;;;;;;;;;2.25;2.25;;;;;19.23;42.11;101812.50;5104686;27;45455;-84
2022/08/07 06:04:05;;;;;;;;;5.00;3.00;;;;;19.37;42.64;101834.94;5088848;28;44964;-88
2022/08/07 06:06:33;;;;;;;;;3.00;3.00;;;;;19.33;41.72;101826.00;5072761;27;45098;-86
2022/08/07 06:09:00;;;;;;;;;4.00;4.00;;;;;19.45;42.35;101849.25;5070621;28;45289;-89
2022/08/07 06:11:26;;;;;;;;;3.25;2.75;;;;;19.33;41.93;101825.09;5069677;28;45083;-93
2022/08/07 06:13:52;;;;;;;;;4.00;3.00;;;;;19.43;42.16;101840.38;5067985;28;45263;-92
2022/08/07 06:16:21;;;;;;;;;2.25;2.25;;;;;19.49;42.38;101839.56;5069785;28;44933;-90
2022/08/07 06:18:47;;;;;;;;;3.50;3.25;;;;;19.47;42.45;101835.97;5077020;27;45227;-87
2022/08/07 06:21:14;;;;;;;;;3.50;3.50;;;;;19.20;42.50;101781.34;5089570;28;45169;-84
2022/08/07 06:23:40;;;;;;;;;5.75;3.50;;;;;19.29;42.27;101791.25;5069074;27;45457;-86
2022/08/07 06:26:06;;;;;;;;;3.25;3.25;;;;;19.38;42.09;101802.06;5054456;28;45704;-85
2022/08/07 06:28:31;;;;;;;;;4.25;3.00;;;;;19.53;42.33;101828.97;5054783;28;45670;-85
2022/08/07 06:30:56;;;;;;;;;4.00;4.00;;;;;19.34;42.51;101793.13;5053249;28;45764;-84
2022/08/07 06:33:23;;;;;;;;;3.00;3.00;;;;;19.58;42.34;101818.38;5054969;28;45383;-90
2022/08/07 06:35:49;;;;;;;;;3.25;3.25;;;;;19.52;42.58;101810.28;5053258;28;45432;-85
2022/08/07 06:38:14;;;;;;;;;2.00;1.00;;;;;19.72;42.44;101832.84;5058318;28;45719;-88
2022/08/07 06:40:46;;;;;;;;;2.50;2.00;;;;;19.55;42.08;101788.97;5059255;28;45479;-91
2022/08/07 06:43:14;;;;;;;;;3.00;3.00;;;;;19.56;41.99;101782.78;5058304;28;45421;-92
2022/08/07 06:45:40;;;;;;;;;3.75;3.25;;;;;19.76;41.83;101805.34;5059554;28;45403;-91
2022/08/07 06:48:05;;;;;;;;;2.50;2.50;;;;;19.63;41.72;101775.78;5058987;28;45398;-91
2022/08/07 06:50:33;;;;;;;;;2.25;2.25;;;;;19.87;41.80;101812.59;5057765;28;45457;-92
2022/08/07 06:53:00;;;;;;;;;3.00;3.00;;;;;19.85;41.52;101804.53;5059440;28;45344;-92
2022/08/07 06:55:29;;;;;;;;;3.00;3.00;;;;;19.88;41.44;101801.03;5058950;28;45520;-90
2022/08/07 06:57:59;;;;;;;;;2.00;2.00;;;;;19.89;41.38;101795.72;5058545;28;45444;-88
2022/08/07 07:00:29;;;;;;;;;3.00;3.00;;;;;19.90;41.75;101796.59;5059060;28;45401;-83
2022/08/07 07:02:55;;;;;;;;;3.00;2.00;;;;;19.94;41.46;101787.75;5068405;28;45489;-91
2022/08/07 07:05:21;;;;;;;;;2.00;2.00;;;;;19.95;41.18;101779.81;5067361;28;45390;-84
2022/08/07 07:07:47;;;;;;;;;2.75;2.75;;;;;19.95;41.13;101776.22;5068482;28;46648;-89
2022/08/07 07:10:13;;;;;;;;;3.00;3.00;;;;;20.32;41.07;101833.63;5072982;28;45327;-83
2022/08/07 07:12:49;;;;;;;;;3.75;3.50;;;;;20.34;40.71;101838.13;5079057;28;45302;-91
2022/08/07 07:15:23;;;;;;;;;3.00;2.25;;;;;20.20;41.11;101799.69;5083344;28;45119;-92
2022/08/07 07:17:59;;;;;;;;;3.00;3.00;;;;;20.35;40.82;101817.66;5071370;28;45296;-90
2022/08/07 07:20:32;;;;;;;;;2.00;2.00;;;;;20.48;40.29;101829.38;5083949;28;45461;-84
2022/08/07 07:22:59;;;;;;;;;4.00;3.25;;;;;20.50;40.83;101824.97;5076482;28;44881;-86
2022/08/07 07:25:25;;;;;;;;;2.00;2.00;;;;;20.54;40.27;101827.69;5064496;28;45434;-92
2022/08/07 07:28:00;;;;;;;;;3.00;3.00;;;;;20.36;40.67;101793.63;5071417;28;45682;-86
2022/08/07 07:30:31;;;;;;;;;2.00;1.25;;;;;20.64;40.45;101830.44;5070974;28;45522;-91
2022/08/07 07:33:00;;;;;;;;;2.75;2.75;;;;;20.68;40.12;101840.28;5070730;28;45199;-87
2022/08/07 07:35:26;;;;;;;;;3.75;3.00;;;;;20.51;40.30;101794.72;5072760;28;44846;-89
2022/08/07 07:37:54;;;;;;;;;2.75;2.75;;;;;20.64;40.15;101817.09;5087104;27;47352;-87
2022/08/07 07:40:21;;;;;;;;;3.00;3.00;;;;;20.81;39.86;101828.84;5080666;27;45290;-85
2022/08/07 07:42:50;;;;;;;;;2.00;2.00;;;;;20.84;40.20;101826.22;5093543;27;44890;-84
2022/08/07 07:45:20;;;;;;;;;3.25;2.00;;;;;20.87;39.99;101821.78;5100271;27;45233;-87
2022/08/07 07:47:48;;;;;;;;;2.50;2.00;;;;;20.76;39.55;101795.84;5093810;27;47641;-87
2022/08/07 07:50:16;;;;;;;;;2.00;2.00;;;;;20.52;39.64;101748.41;5089771;28;45533;-90
2022/08/07 07:52:45;;;;;;;;;1.75;1.75;;;;;20.69;39.29;101772.59;5093653;27;45196;-92
2022/08/07 07:55:13;;;;;;;;;2.00;2.00;;;;;20.86;39.67;101800.41;5096499;27;45254;-91
2022/08/07 07:57:39;;;;;;;;;2.25;2.25;;;;;20.71;39.25;101768.19;5096560;27;45958;-92
2022/08/07 08:00:06;;;;;;;;;2.75;2.25;;;;;21.01;39.55;101808.53;5087192;27;45335;-86
2022/08/07 08:02:34;;;;;;;;;2.25;2.00;;;;;20.72;39.74;101749.50;5088444;27;45354;-91
2022/08/07 08:05:03;;;;;;;;;2.00;1.00;;;;;20.93;39.46;101780.84;5083012;27;45691;-92
2022/08/07 08:07:30;;;;;;;;;2.00;2.00;;;;;21.01;39.43;101778.25;5075857;27;45398;-87
2022/08/07 08:09:56;;;;;;;;;1.75;1.00;;;;;21.01;39.25;101776.47;5072985;28;45470;-88
2022/08/07 08:12:22;;;;;;;;;3.25;2.25;;;;;21.16;38.80;101789.06;5076024;27;45527;-90
2022/08/07 08:14:48;;;;;;;;;1.00;1.00;;;;;21.30;38.74;101805.22;5078259;27;45627;-86
2022/08/07 08:17:15;;;;;;;;;1.50;1.50;;;;;21.29;38.62;101792.75;5072238;27;45513;-85
2022/08/07 08:19:41;;;;;;;;;2.25;2.25;;;;;21.27;38.50;101781.13;5074367;27;46026;-84
2022/08/07 08:27:40;;;;;;;;;2.00;1.25;;;;;21.32;37.96;101769.59;5056460;28;46094;-86
2022/08/07 08:30:08;;;;;;;;;2.00;2.00;;;;;21.47;37.96;101784.84;5056180;28;45308;-90
2022/08/07 08:32:43;;;;;;;;;2.00;2.00;;;;;21.45;37.88;101781.28;5066145;27;45681;-84
2022/08/07 08:35:15;;;;;;;;;1.75;1.75;;;;;21.56;37.97;101795.63;5091240;27;45384;-85
2022/08/07 08:37:45;;;;;;;;;1.75;1.75;;;;;21.71;37.48;101807.28;5147341;27;47454;-84
2022/08/07 08:40:30;;;;;;;;;1.00;1.00;;;;;21.74;37.40;101796.63;5113211;27;45540;-86
2022/08/07 08:43:07;;;;;;;;;1.00;1.00;;;;;21.55;37.19;101753.69;5107765;27;45321;-88
2022/08/07 08:45:45;;;;;;;;;1.00;1.00;;;;;21.72;37.54;101766.25;5102149;27;45458;-92
2022/08/07 08:48:13;;;;;;;;;1.00;1.00;;;;;21.94;37.22;101794.03;5072454;28;46344;-92
2022/08/07 08:50:49;;;;;;;;;1.00;1.00;;;;;21.72;37.12;101747.53;5072838;27;45811;-88
2022/08/07 08:53:43;;;;;;;;;2.00;2.00;;;;;21.90;36.55;101766.34;5080345;27;45419;-92
2022/08/07 08:56:23;;;;;;;;;1.00;1.00;;;;;21.90;36.60;101755.66;5073309;27;45492;-92
2022/08/07 08:59:09;;;;;;;;;1.00;1.00;;;;;22.07;36.24;101788.75;5092877;27;45479;-90
2022/08/07 09:01:43;;;;;;;;;1.00;1.00;;;;;21.83;36.33;101737.78;5081692;27;45803;-93
2022/08/07 09:04:35;;;;;;;;;1.00;1.00;;;;;21.94;36.30;101749.44;5091608;27;45785;-90
2022/08/07 09:07:07;;;;;;;;;2.00;2.00;;;;;22.17;36.32;101781.69;5103796;27;45047;-92
2022/08/07 09:09:44;;;;;;;;;1.75;1.00;;;;;22.04;36.31;101747.69;5091018;27;46057;-92
2022/08/07 09:12:38;;;;;;;;;1.25;1.00;;;;;22.25;35.98;101785.25;5093563;27;45573;-93
2022/08/07 09:15:23;;;;;;;;;2.00;2.00;;;;;22.11;35.75;101745.03;5090029;27;45337;-91
2022/08/07 09:18:00;;;;;;;;;2.00;2.00;;;;;22.36;35.74;101777.25;5112691;27;45071;-87
2022/08/07 09:20:44;;;;;;;;;1.00;1.00;;;;;22.40;35.68;101779.06;5110550;27;47284;-88
2022/08/07 09:23:55;;;;;;;;;1.00;1.00;;;;;22.48;35.45;101785.34;5113245;27;45074;-86
2022/08/07 09:26:32;;;;;;;;;1.00;1.00;;;;;22.42;35.11;101761.22;5099149;27;45251;-89
2022/08/07 09:29:18;;;;;;;;;3.00;2.00;;;;;22.43;35.18;101748.72;5089326;27;45179;-89
2022/08/07 09:32:12;;;;;;;;;1.00;1.00;;;;;22.55;35.20;101754.97;5087661;27;45981;-87
2022/08/07 09:35:15;;;;;;;;;2.00;2.00;;;;;22.73;34.93;101786.25;5090760;28;45515;-90
2022/08/07 09:37:44;;;;;;;;;1.75;1.00;;;;;22.78;34.72;101789.84;5091663;28;45013;-89
2022/08/07 09:40:31;;;;;;;;;1.00;1.00;;;;;22.79;34.92;101780.91;5085706;27;45251;-90
2022/08/07 09:43:18;;;;;;;;;1.50;1.50;;;;;22.87;34.46;101784.50;5091069;28;47344;-91
2022/08/07 09:46:02;;;;;;;;;3.00;2.00;;;;;22.74;34.50;101765.72;5088102;28;45140;-88
2022/08/07 09:48:36;;;;;;;;;1.00;1.00;;;;;22.91;34.28;101783.66;5092495;28;45092;-92
2022/08/07 09:51:29;;;;;;;;;1.25;1.25;;;;;22.95;34.25;101779.16;5090850;28;45029;-91
2022/08/07 09:53:58;;;;;;;;;2.25;2.00;;;;;22.96;34.38;101775.59;5087487;28;47461;-91
2022/08/07 09:56:49;;;;;;;;;2.00;2.00;;;;;22.83;34.25;101739.81;5091615;28;45164;-91
2022/08/07 09:59:28;;;;;;;;;1.00;1.00;;;;;23.00;34.16;101755.91;5090942;28;45122;-84
2022/08/07 10:02:06;;;;;;;;;3.75;2.75;;;;;23.13;34.25;101762.16;5092777;28;45331;-86
2022/08/07 10:04:47;;;;;;;;;2.00;2.00;;;;;23.21;34.30;101775.59;5091995;28;45493;-85
2022/08/07 10:07:49;;;;;;;;;3.00;3.00;;;;;23.28;33.73;101766.63;5092081;28;45474;-89
2022/08/07 10:10:40;;;;;;;;;2.00;2.00;;;;;23.32;33.82;101760.38;5091804;28;45326;-89
2022/08/07 10:13:39;;;;;;;;;2.25;2.00;;;;;23.37;33.74;101759.44;5093236;28;45138;-89
2022/08/07 10:16:26;;;;;;;;;1.75;1.75;;;;;23.43;33.56;101756.75;5073645;28;47730;-87
2022/08/07 10:19:16;;;;;;;;;2.00;2.00;;;;;23.44;33.62;101750.47;5072968;28;45052;-85
2022/08/07 10:21:51;;;;;;;;;1.50;1.50;;;;;23.51;33.67;101754.06;5101625;28;44620;-84
2022/08/07 10:24:37;;;;;;;;;2.00;2.00;;;;;23.58;33.55;101753.13;5101987;28;44875;-85
2022/08/07 10:27:33;;;;;;;;;2.25;2.25;;;;;23.64;33.76;101747.81;5079026;28;47718;-87
2022/08/07 10:30:05;;;;;;;;;2.00;2.00;;;;;23.72;33.84;101747.75;5087144;28;45122;-83
2022/08/07 10:33:13;;;;;;;;;4.00;3.00;;;;;23.63;33.17;101710.19;5093374;28;45005;-84
2022/08/07 10:36:00;;;;;;;;;1.00;1.00;;;;;23.86;33.13;101737.84;5090898;28;45095;-88
2022/08/07 10:38:28;;;;;;;;;2.00;2.00;;;;;23.96;33.21;101729.78;5090792;28;47413;-86
2022/08/07 10:41:23;;;;;;;;;2.50;2.00;;;;;24.04;33.22;101741.34;5091931;28;45487;-86
2022/08/07 10:43:58;;;;;;;;;2.00;2.00;;;;;24.09;33.35;101743.13;5091207;28;44875;-84
2022/08/07 10:46:31;;;;;;;;;2.00;2.00;;;;;24.12;33.80;101739.53;5073653;28;45198;-88
2022/08/07 10:49:02;;;;;;;;;2.00;2.00;;;;;24.08;33.22;101719.84;5090473;28;45772;-85
2022/08/07 10:51:36;;;;;;;;;3.00;3.00;;;;;24.17;33.46;101713.53;5073635;28;45400;-87
2022/08/07 10:54:12;;;;;;;;;3.00;3.00;;;;;24.10;33.39;101701.94;5074007;28;45065;-85
2022/08/07 10:57:09;;;;;;;;;2.00;2.00;;;;;24.33;33.09;101722.38;5072629;28;46553;-84
2022/08/07 11:00:06;;;;;;;;;2.25;2.25;;;;;24.38;33.21;101717.91;5071644;28;45197;-86
2022/08/07 11:03:01;;;;;;;;;3.25;3.25;;;;;24.41;33.36;101718.78;5072109;28;45044;-88
2022/08/07 11:05:29;;;;;;;;;2.25;2.00;;;;;24.46;33.04;101710.69;5089515;28;45078;-85
2022/08/07 11:08:24;;;;;;;;;2.00;2.00;;;;;24.52;33.09;101697.19;5091846;28;45102;-87
2022/08/07 11:11:07;;;;;;;;;3.25;3.25;;;;;24.59;33.25;101711.50;5090447;28;45731;-86
2022/08/07 11:13:50;;;;;;;;;3.00;3.00;;;;;24.38;32.98;101665.06;5072728;28;45203;-87
2022/08/07 11:16:25;;;;;;;;;4.00;3.50;;;;;24.68;33.09;101701.56;5091054;28;45047;-87
2022/08/07 11:18:57;;;;;;;;;3.00;3.00;;;;;24.50;32.85;101660.50;5091698;28;45118;-88
2022/08/07 11:21:48;;;;;;;;;3.00;3.00;;;;;24.77;32.43;101691.59;5091799;27;45997;-85
2022/08/07 11:24:32;;;;;;;;;3.50;3.25;;;;;24.78;33.08;101685.31;5101290;27;45439;-89
2022/08/07 11:27:22;;;;;;;;;3.00;3.00;;;;;24.90;32.33;101686.09;5092771;28;45154;-89
2022/08/07 11:30:09;;;;;;;;;3.50;3.00;;;;;24.84;32.18;101663.78;5093759;28;45010;-88
2022/08/07 11:32:46;;;;;;;;;2.00;2.00;;;;;24.87;31.94;101661.03;5093479;28;46884;-86
2022/08/07 11:35:21;;;;;;;;;3.25;3.00;;;;;25.10;32.54;101674.28;5092759;28;45511;-89
2022/08/07 11:38:16;;;;;;;;;3.50;3.50;;;;;25.12;31.85;101676.06;5095223;27;45086;-90
2022/08/07 11:41:15;;;;;;;;;4.00;4.00;;;;;25.14;31.25;101668.88;5099642;28;44992;-87
2022/08/07 11:44:20;;;;;;;;;4.75;4.00;;;;;25.01;31.57;101634.00;5094334;28;46130;-85
2022/08/07 11:47:16;;;;;;;;;3.50;3.50;;;;;25.32;32.08;101661.47;5091511;27;45059;-88
2022/08/07 11:50:06;;;;;;;;;2.25;2.25;;;;;25.25;32.16;101638.25;5094354;28;45005;-89
2022/08/07 11:52:56;;;;;;;;;3.00;3.00;;;;;25.36;32.11;101647.06;5092577;27;45226;-88